Time;durP1;ratioP1;P1;durP2;ratioP2;P2;SDS_P1;SDS_P2;PMS_P1;PMS_P2;Temp;Humidity;BMP_temperature;BMP_pressure;BME280_temperature;BME280_humidity;BME280_pressure;Samples;Min_cycle;Max_cycle;Signal;HPM_P1;HPM_P2
2022/12/05 00:02:08;;;;;;;66.82;43.72;;;;;;;2.09;100.00;161117.00;5030151;28;20053;-62
2022/12/05 00:04:33;;;;;;;65.15;41.80;;;;;;;2.10;100.00;161119.69;5033543;28;20022;-62
2022/12/05 00:06:59;;;;;;;64.20;44.70;;;;;;;2.05;100.00;161107.59;5035156;28;20581;-62
2022/12/05 00:09:24;;;;;;;72.45;41.67;;;;;;;2.03;100.00;161100.91;5051814;28;20024;-62
2022/12/05 00:11:49;;;;;;;65.78;42.42;;;;;;;2.10;100.00;161119.69;5050365;28;20579;-62
2022/12/05 00:14:15;;;;;;;68.28;42.42;;;;;;;2.11;100.00;161122.38;5051191;28;20029;-62
2022/12/05 00:16:41;;;;;;;69.95;46.28;;;;;;;2.12;100.00;161123.69;5048946;28;20033;-62
2022/12/05 00:19:10;;;;;;;72.90;45.22;;;;;;;2.13;100.00;161126.38;5031818;28;20144;-62
2022/12/05 00:21:36;;;;;;;63.92;41.58;;;;;;;2.15;100.00;161133.09;5030364;28;20037;-62
2022/12/05 00:24:03;;;;;;;67.55;43.33;;;;;;;2.16;100.00;161135.78;5031210;28;20116;-62
2022/12/05 00:26:29;;;;;;;70.78;43.50;;;;;;;2.13;100.00;161127.72;5029884;28;20064;-62
2022/12/05 00:28:55;;;;;;;64.25;43.63;;;;;;;2.16;100.00;161135.78;5041980;28;20072;-62
2022/12/05 00:31:22;;;;;;;73.15;44.42;;;;;;;2.16;100.00;161134.47;5050071;28;20079;-63
2022/12/05 00:33:48;;;;;;;72.60;47.92;;;;;;;2.18;100.00;161139.78;5051545;28;20029;-63
2022/12/05 00:36:17;;;;;;;68.95;43.33;;;;;;;2.18;100.00;161141.16;5031546;28;20041;-63
2022/12/05 00:38:43;;;;;;;66.57;41.45;;;;;;;2.17;100.00;161138.47;5031491;28;20511;-63
2022/12/05 00:41:11;;;;;;;75.35;45.10;;;;;;;2.17;100.00;161138.47;5029932;28;20067;-63
2022/12/05 00:43:38;;;;;;;71.65;44.72;;;;;;;2.15;100.00;161133.09;5031210;28;20056;-62
2022/12/05 00:46:05;;;;;;;62.63;39.35;;;;;;;2.18;100.00;161139.78;5029576;28;20025;-62
2022/12/05 00:48:31;;;;;;;63.10;40.83;;;;;;;2.18;100.00;161141.16;5031656;28;20108;-62
2022/12/05 00:51:05;;;;;;;72.07;43.15;;;;;;;2.18;100.00;161141.16;5029691;28;20036;-62
2022/12/05 00:53:31;;;;;;;64.68;44.42;;;;;;;2.18;100.00;161141.16;5031263;28;20029;-62
2022/12/05 00:56:02;;;;;;;69.22;43.40;;;;;;;2.18;100.00;161141.16;5029853;28;20496;-62
2022/12/05 00:58:27;;;;;;;72.55;46.70;;;;;;;2.21;100.00;161149.19;5031300;28;20030;-62
2022/12/05 01:00:53;;;;;;;65.90;43.67;;;;;;;2.19;100.00;161143.84;5032911;28;20071;-62
2022/12/05 01:03:18;;;;;;;67.75;43.35;;;;;;;2.20;100.00;161145.19;5031496;28;20053;-62
2022/12/05 01:05:44;;;;;;;75.57;45.45;;;;;;;2.22;100.00;161150.56;5031169;28;20028;-62
2022/12/05 01:08:09;;;;;;;73.05;43.33;;;;;;;2.21;100.00;161149.19;5029131;28;20042;-62
2022/12/05 01:10:34;;;;;;;72.07;43.88;;;;;;;2.21;100.00;161149.19;5031294;28;20029;-62
2022/12/05 01:12:59;;;;;;;61.13;43.97;;;;;;;2.27;100.00;161162.66;5036484;28;20045;-62
2022/12/05 01:15:25;;;;;;;70.30;48.10;;;;;;;2.28;100.00;161165.28;5045350;28;20036;-63
2022/12/05 01:17:50;;;;;;;70.13;42.78;;;;;;;2.25;100.00;161158.59;5029283;28;20045;-63
2022/12/05 01:20:16;;;;;;;67.60;43.38;;;;;;;2.24;100.00;161154.56;5031015;28;20025;-63
2022/12/05 01:22:41;;;;;;;63.88;40.58;;;;;;;2.28;100.00;161165.28;5029025;28;20500;-63
2022/12/05 01:25:07;;;;;;;68.15;46.88;;;;;;;2.29;100.00;161167.97;5030776;28;20028;-63
2022/12/05 01:27:32;;;;;;;67.85;41.67;;;;;;;2.27;100.00;161162.66;5029357;28;20056;-63
2022/12/05 01:29:57;;;;;;;70.15;45.03;;;;;;;2.27;100.00;161162.66;5030363;28;20025;-63
2022/12/05 01:32:23;;;;;;;70.30;43.17;;;;;;;2.25;100.00;161158.59;5045432;28;20522;-63
2022/12/05 01:34:48;;;;;;;82.35;46.17;;;;;;;2.28;100.00;161165.28;5030516;28;20021;-63
2022/12/05 01:37:13;;;;;;;73.35;44.70;;;;;;;2.28;100.00;161166.66;5036033;28;20409;-63
2022/12/05 01:39:39;;;;;;;68.93;45.50;;;;;;;2.28;100.00;161166.66;5034167;28;20033;-63
2022/12/05 01:42:05;;;;;;;57.47;39.50;;;;;;;2.29;100.00;161167.97;5028837;28;20393;-63
2022/12/05 01:44:30;;;;;;;72.47;46.55;;;;;;;2.29;100.00;161167.97;5030342;28;20042;-63
2022/12/05 01:46:55;;;;;;;59.85;41.47;;;;;;;2.33;100.00;161178.75;5028575;28;20475;-63
2022/12/05 01:49:29;;;;;;;71.47;41.28;;;;;;;2.32;100.00;161177.38;5030737;28;20075;-63
2022/12/05 01:51:59;;;;;;;65.70;40.40;;;;;;;2.35;100.00;161184.06;5028586;28;20113;-63
2022/12/05 01:54:25;;;;;;;73.93;50.30;;;;;;;2.36;100.00;161186.75;5030821;28;20496;-63
2022/12/05 01:57:01;;;;;;;65.78;41.80;;;;;;;2.35;100.00;161184.06;5028932;28;20048;-63
2022/12/05 01:59:30;;;;;;;65.47;42.60;;;;;;;2.35;100.00;161185.44;5030321;28;20029;-62
2022/12/05 02:01:56;;;;;;;59.55;40.88;;;;;;;2.37;100.00;161189.47;5046629;28;20072;-62
2022/12/05 02:04:21;;;;;;;69.05;45.28;;;;;;;2.42;100.00;161201.53;5050594;28;20060;-61
2022/12/05 02:06:47;;;;;;;61.05;39.53;;;;;;;2.40;100.00;161196.16;5047002;28;20099;-61
2022/12/05 02:09:12;;;;;;;71.50;43.83;;;;;;;2.36;100.00;161186.75;5050208;28;20392;-63
2022/12/05 02:11:50;;;;;;;65.90;42.72;;;;;;;2.40;100.00;161197.53;5044435;28;20038;-62
2022/12/05 02:14:29;;;;;;;64.03;41.47;;;;;;;2.43;100.00;161205.56;5030296;28;20433;-63
2022/12/05 02:17:20;;;;;;;69.22;42.70;;;;;;;2.43;100.00;161204.25;5029094;28;20049;-63
2022/12/05 02:20:09;;;;;;;58.65;39.75;;;;;;;2.41;100.00;161198.84;5030528;28;20113;-62
2022/12/05 02:22:43;;;;;;;;;;;;;;;2.45;100.00;161210.94;5029145;28;20060;-64
2022/12/05 02:25:36;;;;;;;59.15;40.05;;;;;;;2.45;100.00;161209.63;5037092;28;19971;-64
2022/12/05 02:28:19;;;;;;;70.88;41.15;;;;;;;2.45;100.00;161210.94;5028262;28;20041;-62
2022/12/05 02:30:55;;;;;;;66.13;41.97;;;;;;;2.44;100.00;161206.94;5028909;28;20021;-60
2022/12/05 02:33:45;;;;;;;58.80;36.15;;;;;;;2.47;100.00;161216.31;5030356;28;20022;-63
2022/12/05 02:36:22;;;;;;;67.82;45.13;;;;;;;2.46;100.00;161213.63;5029312;28;20102;-63
2022/12/05 02:39:06;;;;;;;71.68;42.35;;;;;;;2.47;100.00;161216.31;5030504;28;20025;-63
2022/12/05 02:41:54;;;;;;;71.63;41.30;;;;;;;2.47;100.00;161216.31;5028887;28;20441;-63
2022/12/05 02:44:32;;;;;;;68.40;45.30;;;;;;;2.41;100.00;161200.22;5029725;28;20083;-63
2022/12/05 02:46:59;;;;;;;69.72;45.65;;;;;;;2.49;100.00;161221.72;5028652;28;20040;-63
2022/12/05 02:49:30;;;;;;;67.20;41.70;;;;;;;2.36;100.00;161188.13;5032880;28;20029;-61
2022/12/05 02:51:58;;;;;;;59.05;40.33;;;;;;;2.48;100.00;161219.03;5041186;28;20037;-62
2022/12/05 02:54:27;;;;;;;67.53;42.45;;;;;;;2.49;100.00;161221.72;5049803;28;20029;-62
2022/12/05 02:56:53;;;;;;;65.32;41.55;;;;;;;2.52;100.00;161228.41;5031896;28;20599;-61
2022/12/05 02:59:19;;;;;;;67.68;44.28;;;;;;;2.52;100.00;161229.75;5035352;28;20037;-61
2022/12/05 03:01:46;;;;;;;61.45;45.20;;;;;;;2.53;100.00;161232.44;5051223;28;20041;-61
2022/12/05 03:04:13;;;;;;;70.20;44.72;;;;;;;2.54;100.00;161235.13;5053300;28;20024;-63
2022/12/05 03:06:44;;;;;;;64.55;39.20;;;;;;;2.54;100.00;161235.13;5051436;28;20036;-63
2022/12/05 03:09:15;;;;;;;69.60;43.60;;;;;;;2.56;100.00;161237.81;5025576;28;20112;-63
2022/12/05 03:11:50;;;;;;;69.53;41.83;;;;;;;2.57;100.00;161240.50;5031891;28;20117;-63
2022/12/05 03:14:40;;;;;;;65.68;41.47;;;;;;;2.53;100.00;161232.44;5048418;28;20025;-63
2022/12/05 03:17:11;;;;;;;65.47;40.45;;;;;;;2.55;100.00;161236.44;5051703;28;20053;-63
2022/12/05 03:19:56;;;;;;;67.30;42.85;;;;;;;2.56;100.00;161239.13;5045049;28;20095;-63
2022/12/05 03:22:32;;;;;;;74.85;47.40;;;;;;;2.58;100.00;161243.16;5031889;28;20068;-63
2022/12/05 03:24:58;;;;;;;70.95;44.45;;;;;;;2.57;100.00;161240.50;5033146;28;20025;-63
2022/12/05 03:27:48;;;;;;;73.95;42.15;;;;;;;2.58;100.00;161243.16;5031052;28;20037;-63
2022/12/05 03:30:17;;;;;;;66.45;42.40;;;;;;;2.56;100.00;161239.13;5018030;28;20056;-63
2022/12/05 03:33:01;;;;;;;70.55;45.58;;;;;;;2.59;100.00;161245.84;5031476;28;20049;-63
2022/12/05 03:35:58;;;;;;;78.15;45.70;;;;;;;2.60;100.00;161248.53;5032563;28;20021;-62
2022/12/05 03:38:30;;;;;;;61.35;42.25;;;;;;;2.60;100.00;161248.53;5051416;28;20761;-62
2022/12/05 03:41:04;;;;;;;66.90;46.15;;;;;;;2.60;100.00;161249.91;5035557;28;20029;-62
2022/12/05 03:43:44;;;;;;;69.00;42.78;;;;;;;2.58;100.00;161243.16;5032208;28;20033;-63
2022/12/05 03:46:31;;;;;;;74.95;46.00;;;;;;;2.58;100.00;161243.16;5031335;28;20033;-63
2022/12/05 03:49:35;;;;;;;70.57;43.33;;;;;;;2.58;100.00;161243.16;5032503;28;20033;-63
2022/12/05 03:52:14;;;;;;;68.53;43.20;;;;;;;2.60;100.00;161248.53;5030664;28;20030;-63
2022/12/05 03:54:48;;;;;;;74.80;45.33;;;;;;;2.60;100.00;161248.53;5032600;28;20061;-63
2022/12/05 03:57:21;;;;;;;81.25;49.53;;;;;;;2.60;100.00;161248.53;5030707;28;20047;-63
2022/12/05 03:59:53;;;;;;;67.25;45.85;;;;;;;2.58;100.00;161244.53;5045836;28;20025;-63
2022/12/05 04:02:34;;;;;;;71.85;44.45;;;;;;;2.62;100.00;161253.91;5030803;28;20045;-63
2022/12/05 04:05:05;;;;;;;76.47;48.35;;;;;;;2.62;100.00;161253.91;5031826;28;20037;-63
2022/12/05 04:07:34;;;;;;;80.00;51.30;;;;;;;2.62;100.00;161255.25;5030700;28;20124;-63
2022/12/05 04:10:06;;;;;;;72.03;49.85;;;;;;;2.64;100.00;161259.31;5044289;28;20033;-62
2022/12/05 04:12:34;;;;;;;75.35;47.05;;;;;;;2.60;100.00;161248.53;5050286;28;20515;-61
2022/12/05 04:15:04;;;;;;;71.50;47.00;;;;;;;2.61;100.00;161251.22;5031867;28;20474;-60
2022/12/05 04:17:47;;;;;;;78.68;49.42;;;;;;;2.65;100.00;161263.31;5030646;28;20041;-60
2022/12/05 04:23:02;;;;;;;69.97;46.47;;;;;;;2.63;100.00;161256.59;5050068;28;20538;-60
2022/12/05 04:25:35;;;;;;;78.25;51.45;;;;;;;2.62;100.00;161253.91;5051875;28;20495;-60
2022/12/05 04:28:23;;;;;;;76.15;46.47;;;;;;;2.61;100.00;161251.22;5044055;28;20543;-60
2022/12/05 04:30:54;;;;;;;76.68;45.83;;;;;;;2.63;100.00;161257.94;5054452;28;20403;-60
2022/12/05 04:33:39;;;;;;;73.47;48.78;;;;;;;2.64;100.00;161259.31;5051107;28;20021;-60
2022/12/05 04:36:18;;;;;;;85.32;49.63;;;;;;;2.63;100.00;161256.59;5051332;28;20416;-60
2022/12/05 04:38:56;;;;;;;90.15;51.15;;;;;;;2.64;100.00;161260.63;5030329;28;20041;-60
2022/12/05 04:41:28;;;;;;;77.43;50.15;;;;;;;2.64;100.00;161260.63;5031217;28;20073;-61
2022/12/05 04:43:58;;;;;;;95.03;52.28;;;;;;;2.62;100.00;161253.91;5029673;28;20083;-61
2022/12/05 04:46:23;;;;;;;84.88;46.42;;;;;;;2.65;100.00;161261.94;5031901;28;20384;-61
2022/12/05 04:48:54;;;;;;;85.30;51.08;;;;;;;2.63;100.00;161256.59;5038277;28;20032;-60
2022/12/05 04:51:25;;;;;;;78.50;50.55;;;;;;;2.63;100.00;161257.94;5050252;28;20036;-61
2022/12/05 04:53:55;;;;;;;77.93;47.22;;;;;;;2.64;100.00;161260.63;5049612;28;20495;-60
2022/12/05 04:56:25;;;;;;;79.78;51.67;;;;;;;2.64;100.00;161259.31;5051393;28;20033;-60
2022/12/05 04:58:50;;;;;;;82.30;48.88;;;;;;;2.69;100.00;161272.72;5049552;28;20037;-60
2022/12/05 05:01:23;;;;;;;73.03;47.42;;;;;;;2.70;100.00;161275.41;5046593;28;20492;-60
2022/12/05 05:04:01;;;;;;;76.53;47.42;;;;;;;2.64;100.00;161259.31;5033027;28;20400;-60
2022/12/05 05:06:27;;;;;;;80.00;49.95;;;;;;;2.68;100.00;161270.03;5046701;28;20491;-61
2022/12/05 05:08:55;;;;;;;79.53;51.47;;;;;;;2.69;100.00;161272.72;5032859;28;20048;-60
2022/12/05 05:11:25;;;;;;;74.10;51.22;;;;;;;2.67;100.00;161267.31;5044983;28;20029;-60
2022/12/05 05:13:51;;;;;;;79.88;51.15;;;;;;;2.67;100.00;161267.31;5046555;28;20037;-60
2022/12/05 05:16:25;;;;;;;81.65;48.63;;;;;;;2.67;100.00;161268.69;5032696;28;20021;-60
2022/12/05 05:18:51;;;;;;;77.10;48.72;;;;;;;2.71;100.00;161278.09;5028852;28;20044;-60
2022/12/05 05:21:24;;;;;;;74.22;50.25;;;;;;;2.71;100.00;161278.09;5030912;28;20021;-60
2022/12/05 05:23:49;;;;;;;83.47;51.40;;;;;;;2.70;100.00;161275.41;5029283;28;20653;-60
2022/12/05 05:26:15;;;;;;;82.75;50.65;;;;;;;2.69;100.00;161272.72;5033638;28;20029;-60
2022/12/05 05:28:41;;;;;;;69.88;44.88;;;;;;;2.70;100.00;161276.72;5049171;28;20052;-60
2022/12/05 05:31:07;;;;;;;81.32;48.30;;;;;;;2.73;100.00;161283.44;5039358;28;20056;-60
2022/12/05 05:33:33;;;;;;;74.53;47.10;;;;;;;2.71;100.00;161278.09;5049569;28;20507;-60
2022/12/05 05:36:07;;;;;;;74.40;47.53;;;;;;;2.74;100.00;161286.13;5032438;28;20040;-60
2022/12/05 05:38:39;;;;;;;77.03;44.95;;;;;;;2.73;100.00;161283.44;5040638;28;20089;-61
2022/12/05 05:41:05;;;;;;;73.28;47.72;;;;;;;2.75;100.00;161288.81;5038281;28;20042;-61
2022/12/05 05:43:31;;;;;;;69.90;46.08;;;;;;;2.73;100.00;161283.44;5029959;28;20499;-60
2022/12/05 05:45:56;;;;;;;69.25;41.85;;;;;;;2.76;100.00;161291.50;5028985;28;20056;-61
2022/12/05 05:48:22;;;;;;;65.45;43.20;;;;;;;2.78;100.00;161295.53;5030220;28;20033;-61
2022/12/05 05:50:47;;;;;;;60.92;40.97;;;;;;;2.76;100.00;161291.50;5028951;28;20408;-60
2022/12/05 05:53:12;;;;;;;63.60;42.28;;;;;;;2.69;100.00;161272.72;5030530;28;20033;-61
2022/12/05 05:55:39;;;;;;;62.53;40.78;;;;;;;2.69;100.00;161272.72;5030561;28;20028;-61
2022/12/05 05:58:05;;;;;;;63.90;40.78;;;;;;;2.74;100.00;161284.78;5028764;28;20041;-61
2022/12/05 06:00:30;;;;;;;65.97;44.83;;;;;;;2.73;100.00;161283.44;5030541;28;20052;-61
2022/12/05 06:02:55;;;;;;;63.03;40.80;;;;;;;2.73;100.00;161283.44;5028409;28;20037;-61
2022/12/05 06:05:21;;;;;;;65.80;40.20;;;;;;;2.74;100.00;161286.13;5030457;28;20026;-61
2022/12/05 06:07:46;;;;;;;61.58;39.05;;;;;;;2.73;100.00;161283.44;5029049;28;20037;-61
2022/12/05 06:10:11;;;;;;;63.20;41.05;;;;;;;2.75;100.00;161288.81;5030018;28;20048;-61
2022/12/05 06:12:37;;;;;;;62.97;42.17;;;;;;;2.72;100.00;161280.75;5028881;28;20030;-61
2022/12/05 06:15:03;;;;;;;58.58;36.55;;;;;;;2.73;100.00;161283.44;5030384;28;20025;-61
2022/12/05 06:17:29;;;;;;;54.25;36.05;;;;;;;2.73;100.00;161282.09;5028492;28;20114;-62
2022/12/05 06:19:54;;;;;;;60.42;39.38;;;;;;;2.72;100.00;161280.75;5030192;28;20037;-60
2022/12/05 06:22:20;;;;;;;56.55;37.75;;;;;;;2.73;100.00;161282.09;5028957;28;20038;-61
2022/12/05 06:24:45;;;;;;;54.53;36.25;;;;;;;2.69;100.00;161272.72;5033477;28;20032;-60
2022/12/05 06:27:10;;;;;;;52.03;35.53;;;;;;;2.69;100.00;161272.72;5032036;28;20404;-61
2022/12/05 06:29:36;;;;;;;56.63;37.78;;;;;;;2.67;100.00;161267.31;5034182;28;20056;-61
2022/12/05 06:32:01;;;;;;;56.22;36.33;;;;;;;2.69;100.00;161274.03;5032283;28;20052;-61
2022/12/05 06:34:27;;;;;;;58.83;37.75;;;;;;;2.64;100.00;161259.31;5033632;28;20029;-61
2022/12/05 06:36:52;;;;;;;57.08;36.70;;;;;;;2.69;100.00;161272.72;5032252;28;20041;-61
2022/12/05 06:39:17;;;;;;;54.97;35.42;;;;;;;2.70;100.00;161275.41;5033958;28;20024;-61
2022/12/05 06:41:43;;;;;;;56.50;37.10;;;;;;;2.70;100.00;161276.72;5031928;28;20039;-61
2022/12/05 06:44:08;;;;;;;55.25;37.92;;;;;;;2.69;100.00;161274.03;5033519;28;20408;-61
2022/12/05 06:46:34;;;;;;;53.22;33.60;;;;;;;2.68;100.00;161270.03;5030978;28;20033;-61
2022/12/05 06:49:00;;;;;;;55.70;37.17;;;;;;;2.70;100.00;161275.41;5033258;28;20029;-61
2022/12/05 06:51:25;;;;;;;50.08;32.63;;;;;;;2.70;100.00;161276.72;5032541;28;20125;-61
2022/12/05 06:53:52;;;;;;;55.67;36.33;;;;;;;2.72;100.00;161280.75;5033537;28;20057;-61
2022/12/05 06:56:18;;;;;;;59.05;36.47;;;;;;;2.72;100.00;161280.75;5031913;28;20045;-61
2022/12/05 06:58:47;;;;;;;57.65;37.15;;;;;;;2.71;100.00;161278.09;5033719;28;20041;-61
2022/12/05 07:03:58;;;;;;;54.20;35.97;;;;;;;2.74;100.00;161286.13;5029694;28;20148;-61
2022/12/05 07:06:24;;;;;;;63.22;38.35;;;;;;;2.72;100.00;161280.75;5031629;28;20524;-61
2022/12/05 07:08:50;;;;;;;60.58;40.95;;;;;;;2.71;100.00;161278.09;5032786;28;20102;-62
2022/12/05 07:11:15;;;;;;;61.40;36.83;;;;;;;2.71;100.00;161278.09;5031276;28;20509;-61
2022/12/05 07:13:41;;;;;;;60.60;37.70;;;;;;;2.72;100.00;161280.75;5033088;28;20384;-61
2022/12/05 07:16:07;;;;;;;64.55;40.65;;;;;;;2.71;100.00;161278.09;5031700;28;20045;-61
2022/12/05 07:18:33;;;;;;;55.83;36.40;;;;;;;2.69;100.00;161272.72;5032601;28;20033;-61
2022/12/05 07:21:00;;;;;;;58.50;35.60;;;;;;;2.70;100.00;161275.41;5031430;28;20074;-61
2022/12/05 07:23:26;;;;;;;66.18;41.15;;;;;;;2.68;100.00;161270.03;5032909;28;20519;-61
2022/12/05 07:25:52;;;;;;;60.20;36.83;;;;;;;2.72;100.00;161279.41;5031069;28;20112;-61
2022/12/05 07:28:17;;;;;;;65.13;42.45;;;;;;;2.69;100.00;161274.03;5033032;28;20026;-61
2022/12/05 07:30:42;;;;;;;67.53;41.70;;;;;;;2.70;100.00;161276.72;5031341;28;20021;-61
2022/12/05 07:33:08;;;;;;;64.72;39.42;;;;;;;2.71;100.00;161278.09;5032350;28;20032;-62
2022/12/05 07:35:33;;;;;;;69.07;38.80;;;;;;;2.74;100.00;161286.13;5032893;28;20029;-61
2022/12/05 07:37:58;;;;;;;62.50;41.50;;;;;;;2.73;100.00;161283.44;5030959;28;20496;-62
2022/12/05 07:40:24;;;;;;;60.60;38.22;;;;;;;2.75;100.00;161288.81;5032511;28;20025;-62
2022/12/05 07:42:52;;;;;;;56.45;40.08;;;;;;;2.75;100.00;161288.81;5031097;28;20093;-61
2022/12/05 07:45:18;;;;;;;63.10;39.63;;;;;;;2.75;100.00;161288.81;5032583;28;20419;-62
2022/12/05 07:47:43;;;;;;;59.88;39.80;;;;;;;2.72;100.00;161280.75;5030863;28;20467;-62
2022/12/05 07:50:09;;;;;;;55.70;36.55;;;;;;;2.76;100.00;161291.50;5032324;28;20021;-62
2022/12/05 07:52:34;;;;;;;57.88;40.42;;;;;;;2.74;100.00;161246.63;5031019;28;20041;-62
2022/12/05 07:54:59;;;;;;;59.33;40.75;;;;;;;2.74;100.00;161010.78;5031931;28;20025;-62
2022/12/05 07:57:25;;;;;;;64.78;39.78;;;;;;;2.75;100.00;160740.88;5031075;28;20095;-62
2022/12/05 07:59:50;;;;;;;60.63;38.50;;;;;;;2.72;100.00;160585.63;5023644;28;20021;-62
2022/12/05 08:02:15;;;;;;;53.75;38.33;;;;;;;2.78;100.00;160252.81;5030487;28;20501;-61
2022/12/05 08:04:41;;;;;;;60.70;37.65;;;;;;;2.78;100.00;160127.41;5032277;28;20025;-61
2022/12/05 08:07:09;;;;;;;53.13;35.78;;;;;;;2.80;100.00;159961.00;5030343;28;20044;-61
2022/12/05 08:09:34;;;;;;;56.60;37.13;;;;;;;2.78;100.00;159886.22;5031936;28;20100;-61
2022/12/05 08:11:59;;;;;;;69.10;40.53;;;;;;;2.74;100.00;159746.06;5030354;28;20060;-61
2022/12/05 08:14:25;;;;;;;65.80;41.80;;;;;;;2.80;100.00;159504.53;5032044;28;20025;-61
2022/12/05 08:16:50;;;;;;;66.30;42.35;;;;;;;2.80;100.00;159582.16;5030145;28;20037;-61
2022/12/05 08:19:16;;;;;;;80.13;43.58;;;;;;;2.81;100.00;159176.00;5031879;28;20388;-61
2022/12/05 08:21:41;;;;;;;67.80;42.80;;;;;;;2.82;100.00;159106.50;5030439;28;20068;-61
2022/12/05 08:24:07;;;;;;;61.03;38.90;;;;;;;2.80;100.00;158911.75;5031110;28;20026;-61
2022/12/05 08:26:35;;;;;;;64.18;41.42;;;;;;;2.80;100.00;158774.22;5030741;28;20048;-61
2022/12/05 08:29:04;;;;;;;67.15;43.15;;;;;;;2.77;100.00;158041.56;5031552;28;20030;-61
2022/12/05 08:31:31;;;;;;;76.25;43.10;;;;;;;2.86;100.00;157024.53;5030342;28;20120;-61
2022/12/05 08:33:58;;;;;;;73.43;45.22;;;;;;;2.84;100.00;156764.59;5031326;28;20440;-61
2022/12/05 08:36:24;;;;;;;73.82;43.95;;;;;;;2.87;100.00;155872.34;5030381;28;20053;-61
2022/12/05 08:38:55;;;;;;;72.38;43.10;;;;;;;2.89;100.00;155317.97;5030602;28;20036;-61
2022/12/05 08:41:21;;;;;;;73.63;49.22;;;;;;;2.89;100.00;154717.53;5027847;28;20041;-61
2022/12/05 08:43:46;;;;;;;71.45;44.80;;;;;;;2.89;100.00;154002.97;5031241;28;20096;-61
2022/12/05 08:46:12;;;;;;;89.13;51.83;;;;;;;2.90;100.00;153308.72;5028803;28;20090;-61
2022/12/05 08:48:37;;;;;;;84.93;48.78;;;;;;;2.95;100.00;152276.34;5031016;28;20365;-61
2022/12/05 08:51:10;;;;;;;84.15;49.05;;;;;;;2.95;100.00;151929.34;5029772;28;20096;-61
2022/12/05 08:53:36;;;;;;;84.85;50.85;;;;;;;2.97;100.00;151237.84;5031326;28;20033;-61
2022/12/05 08:56:03;;;;;;;89.43;48.10;;;;;;;2.98;100.00;150890.84;5029659;28;20048;-61
2022/12/05 08:58:29;;;;;;;89.35;47.78;;;;;;;3.02;100.00;150204.41;5031043;28;20033;-61
2022/12/05 09:01:03;;;;;;;71.18;42.25;;;;;;;3.04;100.00;149861.25;5023965;28;20067;-61
2022/12/05 09:03:28;;;;;;;81.28;47.25;;;;;;;3.06;100.00;149516.78;5030771;28;20025;-61
2022/12/05 09:05:53;;;;;;;83.68;48.40;;;;;;;3.06;100.00;149169.94;5029461;28;20071;-60
2022/12/05 09:08:19;;;;;;;85.95;46.88;;;;;;;3.08;100.00;149174.88;5030722;28;20025;-60
2022/12/05 09:10:44;;;;;;;89.05;48.08;;;;;;;3.10;100.00;148831.69;5029540;28;20033;-60
2022/12/05 09:13:09;;;;;;;87.97;51.53;;;;;;;3.14;100.00;148841.59;5030758;28;20036;-60
2022/12/05 09:15:37;;;;;;;93.78;48.15;;;;;;;3.13;100.00;148837.84;5030639;28;20495;-60
2022/12/05 09:18:02;;;;;;;98.03;51.80;;;;;;;3.16;100.00;148846.50;5029172;28;20041;-60
2022/12/05 09:20:28;;;;;;;103.30;50.75;;;;;;;3.17;100.00;148848.97;5031129;28;20504;-60
2022/12/05 09:22:53;;;;;;;89.53;49.08;;;;;;;3.18;100.00;149198.41;5028846;28;20404;-60
2022/12/05 09:25:18;;;;;;;90.68;53.63;;;;;;;3.12;100.00;149881.16;5030764;28;20018;-60
2022/12/05 09:27:45;;;;;;;88.57;48.15;;;;;;;3.19;100.00;149549.09;5029309;28;20052;-60
2022/12/05 09:30:11;;;;;;;101.15;52.22;;;;;;;3.17;100.00;149893.59;5030675;28;20032;-60
2022/12/05 09:32:36;;;;;;;99.95;52.65;;;;;;;3.12;100.00;149881.16;5029453;28;20433;-60
2022/12/05 09:35:01;;;;;;;91.22;52.40;;;;;;;3.17;100.00;149893.59;5030683;28;20021;-60
2022/12/05 09:37:27;;;;;;;102.82;53.60;;;;;;;3.21;100.00;149902.28;5028982;28;20370;-60
2022/12/05 09:39:52;;;;;;;97.35;52.70;;;;;;;3.14;100.00;150582.66;5030597;28;20025;-60
2022/12/05 09:42:35;;;;;;;97.90;52.10;;;;;;;3.17;100.00;150938.44;5029229;28;20038;-60
2022/12/05 09:45:19;;;;;;;99.35;49.50;;;;;;;3.21;100.00;150598.88;5030114;28;20475;-60
2022/12/05 09:47:47;;;;;;;99.80;53.85;;;;;;;3.21;100.00;150946.00;5029237;28;20519;-60
2022/12/05 09:50:22;;;;;;;71.85;41.00;;;;;;;3.23;100.00;151300.63;5030615;28;20131;-60
2022/12/05 09:52:59;;;;;;;113.72;57.88;;;;;;;3.24;100.00;151301.91;5028696;28;20064;-60
2022/12/05 09:55:34;;;;;;;104.35;53.38;;;;;;;3.25;100.00;151304.38;5030924;28;20021;-60
2022/12/05 09:58:02;;;;;;;105.28;50.60;;;;;;;3.24;100.00;151651.56;5031264;28;20049;-60
2022/12/05 10:00:29;;;;;;;108.33;52.40;;;;;;;3.27;100.00;152006.31;5034300;28;20029;-60
2022/12/05 10:03:23;;;;;;;103.40;55.00;;;;;;;3.26;100.00;152352.28;5029235;28;21112;-60
2022/12/05 10:06:00;;;;;;;93.22;50.28;;;;;;;3.32;100.00;152018.94;5013139;28;20033;-60
2022/12/05 10:08:36;;;;;;;107.13;54.47;;;;;;;3.34;100.00;152024.00;5031293;28;20025;-61
2022/12/05 10:11:35;;;;;;;104.60;52.63;;;;;;;3.33;100.00;152719.84;5032461;28;20060;-60
2022/12/05 10:14:50;;;;;;;98.43;49.95;;;;;;;3.37;100.00;152728.72;5033912;28;20021;-60
2022/12/05 10:17:38;;;;;;;103.13;49.72;;;;;;;3.38;100.00;153079.88;4991223;28;20046;-60
2022/12/05 10:20:10;;;;;;;69.05;36.92;;;;;;;3.39;100.00;152733.75;4992285;28;20176;-60
2022/12/05 10:22:59;;;;;;;99.57;47.75;;;;;;;3.45;100.00;153097.69;5021262;28;20042;-60
2022/12/05 10:25:26;;;;;;;88.43;50.92;;;;;;;3.49;100.00;153106.56;5034321;28;20021;-60
2022/12/05 10:27:55;;;;;;;98.82;49.20;;;;;;;3.49;100.00;153456.53;5032320;28;20627;-60
2022/12/05 10:30:23;;;;;;;86.55;45.95;;;;;;;3.57;100.00;153126.94;5033859;28;20480;-60
2022/12/05 10:32:57;;;;;;;84.20;46.85;;;;;;;3.65;100.00;152448.47;5032579;28;20124;-60
2022/12/05 10:35:34;;;;;;;96.75;48.72;;;;;;;3.61;100.00;153484.59;5034398;28;20404;-60
2022/12/05 10:38:05;;;;;;;93.82;54.17;;;;;;;3.69;100.00;153154.88;5031804;28;20045;-60
2022/12/05 10:40:44;;;;;;;83.22;48.05;;;;;;;3.68;100.00;153851.28;5034152;28;20022;-60
2022/12/05 10:43:13;;;;;;;88.90;48.25;;;;;;;3.68;100.00;154198.88;5030053;28;20065;-60
2022/12/05 10:45:46;;;;;;;84.93;48.22;;;;;;;3.67;100.00;155091.72;5033003;28;20049;-60
2022/12/05 10:48:14;;;;;;;84.95;46.55;;;;;;;3.60;100.00;156769.56;5031818;28;20041;-60
2022/12/05 10:50:42;;;;;;;85.65;49.97;;;;;;;3.62;100.00;157647.50;5033917;28;20427;-60
2022/12/05 10:53:14;;;;;;;84.45;48.63;;;;;;;3.58;100.00;158897.34;5031454;28;20042;-60
2022/12/05 10:55:41;;;;;;;80.95;45.83;;;;;;;3.56;100.00;159748.81;5033683;28;20060;-60
2022/12/05 10:58:24;;;;;;;80.95;44.75;;;;;;;3.54;100.00;160547.16;5031847;28;20037;-60
2022/12/05 11:00:56;;;;;;;84.40;48.08;;;;;;;3.57;100.00;160744.88;5031978;28;20033;-60
2022/12/05 11:03:28;;;;;;;76.70;42.30;;;;;;;3.69;100.00;160278.81;5033353;28;20017;-60
2022/12/05 11:05:56;;;;;;;86.35;45.60;;;;;;;3.66;100.00;160878.16;5032056;28;20104;-60
2022/12/05 11:08:24;;;;;;;75.70;43.42;;;;;;;3.65;100.00;161274.06;5033046;28;20785;-60
2022/12/05 11:11:01;;;;;;;90.03;48.25;;;;;;;3.62;100.00;161514.44;5031620;28;20113;-60
2022/12/05 11:13:26;;;;;;;80.78;48.63;;;;;;;3.59;100.00;161506.41;5036053;28;20025;-60
2022/12/05 11:15:52;;;;;;;76.68;44.05;;;;;;;3.53;100.00;161491.63;5044310;28;20029;-60
2022/12/05 11:18:28;;;;;;;75.20;44.67;;;;;;;3.60;100.00;161509.09;5051600;28;20033;-60
2022/12/05 11:20:53;;;;;;;92.47;47.35;;;;;;;3.61;100.00;161511.81;5028802;28;20021;-60
2022/12/05 11:23:28;;;;;;;78.25;44.85;;;;;;;3.67;100.00;161527.91;5034146;28;20098;-60
2022/12/05 11:25:55;;;;;;;84.32;46.00;;;;;;;3.70;100.00;161535.94;5031524;28;20075;-60
2022/12/05 11:28:20;;;;;;;70.95;42.65;;;;;;;3.74;100.00;161545.34;5048003;28;20101;-60